sensor_id;sensor_type;location;lat;lon;timestamp;temperature;humidity
35635;DHT22;21757;43.610;1.440;2023-05-16T00:00:14;13.60;99.90
35635;DHT22;21757;43.610;1.440;2023-05-16T00:02:40;13.60;99.90
35635;DHT22;21757;43.610;1.440;2023-05-16T00:05:07;13.50;99.90
35635;DHT22;21757;43.610;1.440;2023-05-16T00:07:35;13.50;99.90
35635;DHT22;21757;43.610;1.440;2023-05-16T00:10:01;13.50;99.90
35635;DHT22;21757;43.610;1.440;2023-05-16T00:12:27;13.50;99.90
35635;DHT22;21757;43.610;1.440;2023-05-16T00:14:53;13.50;99.90
35635;DHT22;21757;43.610;1.440;2023-05-16T00:17:20;13.50;99.90
35635;DHT22;21757;43.610;1.440;2023-05-16T00:19:46;13.40;99.90
35635;DHT22;21757;43.610;1.440;2023-05-16T00:22:16;13.40;99.90
35635;DHT22;21757;43.610;1.440;2023-05-16T00:24:42;13.40;99.90
35635;DHT22;21757;43.610;1.440;2023-05-16T00:27:07;13.40;99.90
35635;DHT22;21757;43.610;1.440;2023-05-16T00:29:34;13.40;99.90
35635;DHT22;21757;43.610;1.440;2023-05-16T00:31:59;13.30;99.90
35635;DHT22;21757;43.610;1.440;2023-05-16T00:34:25;13.30;99.90
35635;DHT22;21757;43.610;1.440;2023-05-16T00:36:51;13.30;99.90
35635;DHT22;21757;43.610;1.440;2023-05-16T00:39:17;13.40;99.90
35635;DHT22;21757;43.610;1.440;2023-05-16T00:41:43;13.30;99.90
35635;DHT22;21757;43.610;1.440;2023-05-16T00:44:09;13.30;99.90
35635;DHT22;21757;43.610;1.440;2023-05-16T00:46:34;13.20;99.90
35635;DHT22;21757;43.610;1.440;2023-05-16T00:49:00;13.20;99.90
35635;DHT22;21757;43.610;1.440;2023-05-16T00:51:26;13.20;99.90
35635;DHT22;21757;43.610;1.440;2023-05-16T00:53:52;13.20;99.90
35635;DHT22;21757;43.610;1.440;2023-05-16T00:56:19;13.20;99.90
35635;DHT22;21757;43.610;1.440;2023-05-16T00:58:46;13.20;99.90
35635;DHT22;21757;43.610;1.440;2023-05-16T01:01:12;13.20;99.90
35635;DHT22;21757;43.610;1.440;2023-05-16T01:03:38;13.20;99.90
35635;DHT22;21757;43.610;1.440;2023-05-16T01:06:04;13.20;99.90
35635;DHT22;21757;43.610;1.440;2023-05-16T01:08:30;13.20;99.90
35635;DHT22;21757;43.610;1.440;2023-05-16T01:11:01;13.20;99.90
35635;DHT22;21757;43.610;1.440;2023-05-16T01:13:52;13.20;99.90
35635;DHT22;21757;43.610;1.440;2023-05-16T01:16:45;13.20;99.90
35635;DHT22;21757;43.610;1.440;2023-05-16T01:19:27;13.10;99.90
35635;DHT22;21757;43.610;1.440;2023-05-16T01:22:05;13.10;99.90
35635;DHT22;21757;43.610;1.440;2023-05-16T01:27:13;13.10;99.90
35635;DHT22;21757;43.610;1.440;2023-05-16T01:29:39;13.10;99.90
35635;DHT22;21757;43.610;1.440;2023-05-16T01:32:05;13.10;99.90
35635;DHT22;21757;43.610;1.440;2023-05-16T01:34:30;13.10;99.90
35635;DHT22;21757;43.610;1.440;2023-05-16T01:37:13;13.10;99.90
35635;DHT22;21757;43.610;1.440;2023-05-16T01:39:55;13.10;99.90
35635;DHT22;21757;43.610;1.440;2023-05-16T01:42:29;13.00;99.90
35635;DHT22;21757;43.610;1.440;2023-05-16T01:45:33;13.00;99.90
35635;DHT22;21757;43.610;1.440;2023-05-16T01:48:10;13.10;99.90
35635;DHT22;21757;43.610;1.440;2023-05-16T01:50:56;13.00;99.90
35635;DHT22;21757;43.610;1.440;2023-05-16T01:59:00;13.00;99.90
35635;DHT22;21757;43.610;1.440;2023-05-16T02:01:29;13.10;99.90
35635;DHT22;21757;43.610;1.440;2023-05-16T02:03:58;13.10;99.90
35635;DHT22;21757;43.610;1.440;2023-05-16T02:06:24;13.10;99.90
35635;DHT22;21757;43.610;1.440;2023-05-16T02:08:50;13.10;99.90
35635;DHT22;21757;43.610;1.440;2023-05-16T02:11:17;13.10;99.90
35635;DHT22;21757;43.610;1.440;2023-05-16T02:13:42;13.10;99.90
35635;DHT22;21757;43.610;1.440;2023-05-16T02:16:11;13.00;99.90
35635;DHT22;21757;43.610;1.440;2023-05-16T02:18:38;13.00;99.90
35635;DHT22;21757;43.610;1.440;2023-05-16T02:21:06;13.00;99.90
35635;DHT22;21757;43.610;1.440;2023-05-16T02:23:33;13.00;99.90
35635;DHT22;21757;43.610;1.440;2023-05-16T02:25:58;13.00;99.90
35635;DHT22;21757;43.610;1.440;2023-05-16T02:28:27;12.90;99.90
35635;DHT22;21757;43.610;1.440;2023-05-16T02:30:59;13.00;99.90
35635;DHT22;21757;43.610;1.440;2023-05-16T02:33:26;12.90;99.90
35635;DHT22;21757;43.610;1.440;2023-05-16T02:35:53;12.90;99.90
35635;DHT22;21757;43.610;1.440;2023-05-16T02:38:19;12.90;99.90
35635;DHT22;21757;43.610;1.440;2023-05-16T02:40:48;12.90;99.90
35635;DHT22;21757;43.610;1.440;2023-05-16T02:43:15;12.90;99.90
35635;DHT22;21757;43.610;1.440;2023-05-16T02:45:40;12.90;99.90
35635;DHT22;21757;43.610;1.440;2023-05-16T02:48:06;12.90;99.90
35635;DHT22;21757;43.610;1.440;2023-05-16T02:50:33;12.90;99.90
35635;DHT22;21757;43.610;1.440;2023-05-16T02:52:59;12.90;99.90
35635;DHT22;21757;43.610;1.440;2023-05-16T02:55:27;12.90;99.90
35635;DHT22;21757;43.610;1.440;2023-05-16T02:57:53;12.90;99.90
35635;DHT22;21757;43.610;1.440;2023-05-16T03:00:19;12.90;99.90
35635;DHT22;21757;43.610;1.440;2023-05-16T03:02:45;12.90;99.90
35635;DHT22;21757;43.610;1.440;2023-05-16T03:05:11;12.80;99.90
35635;DHT22;21757;43.610;1.440;2023-05-16T03:07:37;12.70;99.90
35635;DHT22;21757;43.610;1.440;2023-05-16T03:10:03;12.70;99.90
35635;DHT22;21757;43.610;1.440;2023-05-16T03:12:29;12.80;99.90
35635;DHT22;21757;43.610;1.440;2023-05-16T03:14:55;12.80;99.90
35635;DHT22;21757;43.610;1.440;2023-05-16T03:17:21;12.80;99.90
35635;DHT22;21757;43.610;1.440;2023-05-16T03:19:47;12.80;99.90
35635;DHT22;21757;43.610;1.440;2023-05-16T03:22:13;12.90;99.90
35635;DHT22;21757;43.610;1.440;2023-05-16T03:24:39;12.90;99.90
35635;DHT22;21757;43.610;1.440;2023-05-16T03:27:05;12.80;99.90
35635;DHT22;21757;43.610;1.440;2023-05-16T03:29:31;12.80;99.90
35635;DHT22;21757;43.610;1.440;2023-05-16T03:31:56;12.80;99.90
35635;DHT22;21757;43.610;1.440;2023-05-16T03:34:22;12.80;99.90
35635;DHT22;21757;43.610;1.440;2023-05-16T03:36:48;12.70;99.90
35635;DHT22;21757;43.610;1.440;2023-05-16T03:39:15;12.70;99.90
35635;DHT22;21757;43.610;1.440;2023-05-16T03:41:41;12.70;99.90
35635;DHT22;21757;43.610;1.440;2023-05-16T03:44:07;12.70;99.90
35635;DHT22;21757;43.610;1.440;2023-05-16T03:46:42;12.70;99.90
35635;DHT22;21757;43.610;1.440;2023-05-16T03:49:07;12.70;99.90
35635;DHT22;21757;43.610;1.440;2023-05-16T03:51:33;12.70;99.90
35635;DHT22;21757;43.610;1.440;2023-05-16T03:54:03;12.70;99.90
35635;DHT22;21757;43.610;1.440;2023-05-16T03:56:37;12.70;99.90
35635;DHT22;21757;43.610;1.440;2023-05-16T04:04:13;12.60;99.90
35635;DHT22;21757;43.610;1.440;2023-05-16T04:06:42;12.60;99.90
35635;DHT22;21757;43.610;1.440;2023-05-16T04:09:07;12.70;99.90
35635;DHT22;21757;43.610;1.440;2023-05-16T04:11:34;12.60;99.90
35635;DHT22;21757;43.610;1.440;2023-05-16T04:14:00;12.60;99.90
35635;DHT22;21757;43.610;1.440;2023-05-16T04:16:29;12.60;99.90
35635;DHT22;21757;43.610;1.440;2023-05-16T04:18:55;12.70;99.90
35635;DHT22;21757;43.610;1.440;2023-05-16T04:21:21;12.60;99.90
35635;DHT22;21757;43.610;1.440;2023-05-16T04:23:50;12.70;99.90
35635;DHT22;21757;43.610;1.440;2023-05-16T04:26:16;12.70;99.90
35635;DHT22;21757;43.610;1.440;2023-05-16T04:28:42;12.70;99.90
35635;DHT22;21757;43.610;1.440;2023-05-16T04:31:10;12.70;99.90
35635;DHT22;21757;43.610;1.440;2023-05-16T04:33:36;12.60;99.90
35635;DHT22;21757;43.610;1.440;2023-05-16T04:36:02;12.70;99.90
35635;DHT22;21757;43.610;1.440;2023-05-16T04:38:37;12.70;99.90
35635;DHT22;21757;43.610;1.440;2023-05-16T04:41:02;12.80;99.90
35635;DHT22;21757;43.610;1.440;2023-05-16T04:43:31;12.80;99.90
35635;DHT22;21757;43.610;1.440;2023-05-16T04:45:57;12.80;99.90
35635;DHT22;21757;43.610;1.440;2023-05-16T04:48:25;12.80;99.90
35635;DHT22;21757;43.610;1.440;2023-05-16T04:50:54;12.90;99.90
35635;DHT22;21757;43.610;1.440;2023-05-16T04:53:20;12.90;99.90
35635;DHT22;21757;43.610;1.440;2023-05-16T04:55:45;12.90;99.90
35635;DHT22;21757;43.610;1.440;2023-05-16T04:58:12;12.80;99.90
35635;DHT22;21757;43.610;1.440;2023-05-16T05:00:38;12.80;99.90
35635;DHT22;21757;43.610;1.440;2023-05-16T05:03:03;12.90;99.90
35635;DHT22;21757;43.610;1.440;2023-05-16T05:05:29;12.90;99.90
35635;DHT22;21757;43.610;1.440;2023-05-16T05:07:57;12.90;99.90
35635;DHT22;21757;43.610;1.440;2023-05-16T05:10:23;12.80;99.90
35635;DHT22;21757;43.610;1.440;2023-05-16T05:12:49;12.80;99.90
35635;DHT22;21757;43.610;1.440;2023-05-16T05:15:15;12.90;99.90
35635;DHT22;21757;43.610;1.440;2023-05-16T05:17:40;12.90;99.90
35635;DHT22;21757;43.610;1.440;2023-05-16T05:20:07;12.90;99.90
35635;DHT22;21757;43.610;1.440;2023-05-16T05:22:33;12.90;99.90
35635;DHT22;21757;43.610;1.440;2023-05-16T05:24:58;12.90;99.90
35635;DHT22;21757;43.610;1.440;2023-05-16T05:27:24;13.00;99.90
35635;DHT22;21757;43.610;1.440;2023-05-16T05:29:50;13.20;99.90
35635;DHT22;21757;43.610;1.440;2023-05-16T05:32:15;13.10;99.90
35635;DHT22;21757;43.610;1.440;2023-05-16T05:34:41;13.10;99.90
35635;DHT22;21757;43.610;1.440;2023-05-16T05:37:07;13.00;99.90
35635;DHT22;21757;43.610;1.440;2023-05-16T05:39:32;13.00;99.90
35635;DHT22;21757;43.610;1.440;2023-05-16T05:41:58;13.10;99.90
35635;DHT22;21757;43.610;1.440;2023-05-16T05:44:24;13.10;99.90
35635;DHT22;21757;43.610;1.440;2023-05-16T05:46:50;13.00;99.90
35635;DHT22;21757;43.610;1.440;2023-05-16T05:49:15;13.00;99.90
35635;DHT22;21757;43.610;1.440;2023-05-16T05:51:41;13.00;99.90
35635;DHT22;21757;43.610;1.440;2023-05-16T05:54:08;13.00;99.90
35635;DHT22;21757;43.610;1.440;2023-05-16T05:56:34;12.90;1.00
35635;DHT22;21757;43.610;1.440;2023-05-16T05:58:59;12.70;99.90
35635;DHT22;21757;43.610;1.440;2023-05-16T06:01:25;12.60;1.00
35635;DHT22;21757;43.610;1.440;2023-05-16T06:03:51;12.60;1.00
35635;DHT22;21757;43.610;1.440;2023-05-16T06:06:17;12.30;1.00
35635;DHT22;21757;43.610;1.440;2023-05-16T06:08:43;12.20;1.00
35635;DHT22;21757;43.610;1.440;2023-05-16T06:11:09;12.20;1.00
35635;DHT22;21757;43.610;1.440;2023-05-16T06:13:34;12.30;1.00
35635;DHT22;21757;43.610;1.440;2023-05-16T06:16:00;12.40;1.00
35635;DHT22;21757;43.610;1.440;2023-05-16T06:18:26;12.30;99.90
35635;DHT22;21757;43.610;1.440;2023-05-16T06:20:52;12.40;99.90
35635;DHT22;21757;43.610;1.440;2023-05-16T06:23:17;12.50;99.90
35635;DHT22;21757;43.610;1.440;2023-05-16T06:25:43;12.50;99.90
35635;DHT22;21757;43.610;1.440;2023-05-16T06:28:09;12.50;99.90
35635;DHT22;21757;43.610;1.440;2023-05-16T06:30:34;12.70;99.90
35635;DHT22;21757;43.610;1.440;2023-05-16T06:33:00;12.80;99.90
35635;DHT22;21757;43.610;1.440;2023-05-16T06:35:26;12.90;99.90
35635;DHT22;21757;43.610;1.440;2023-05-16T06:37:51;13.00;99.90
35635;DHT22;21757;43.610;1.440;2023-05-16T06:40:17;13.40;99.90
35635;DHT22;21757;43.610;1.440;2023-05-16T06:42:43;13.70;99.90
35635;DHT22;21757;43.610;1.440;2023-05-16T06:45:09;13.70;99.90
35635;DHT22;21757;43.610;1.440;2023-05-16T06:47:35;13.60;99.90
35635;DHT22;21757;43.610;1.440;2023-05-16T06:50:01;13.70;99.90
35635;DHT22;21757;43.610;1.440;2023-05-16T06:52:27;13.90;99.90
35635;DHT22;21757;43.610;1.440;2023-05-16T06:54:52;13.90;99.90
35635;DHT22;21757;43.610;1.440;2023-05-16T06:57:18;14.00;99.90
35635;DHT22;21757;43.610;1.440;2023-05-16T06:59:44;13.90;99.90
35635;DHT22;21757;43.610;1.440;2023-05-16T07:02:09;14.10;99.90
35635;DHT22;21757;43.610;1.440;2023-05-16T07:04:35;14.10;99.90
35635;DHT22;21757;43.610;1.440;2023-05-16T07:07:03;14.10;99.90
35635;DHT22;21757;43.610;1.440;2023-05-16T07:09:29;14.10;99.90
35635;DHT22;21757;43.610;1.440;2023-05-16T07:11:55;14.20;99.90
35635;DHT22;21757;43.610;1.440;2023-05-16T07:14:21;14.20;99.90
35635;DHT22;21757;43.610;1.440;2023-05-16T07:16:46;13.90;99.90
35635;DHT22;21757;43.610;1.440;2023-05-16T07:19:12;14.00;99.90
35635;DHT22;21757;43.610;1.440;2023-05-16T07:21:38;14.20;99.90
35635;DHT22;21757;43.610;1.440;2023-05-16T07:24:04;14.20;99.90
35635;DHT22;21757;43.610;1.440;2023-05-16T07:26:30;14.10;99.90
35635;DHT22;21757;43.610;1.440;2023-05-16T07:28:56;14.20;99.90
35635;DHT22;21757;43.610;1.440;2023-05-16T07:31:22;14.30;99.90
35635;DHT22;21757;43.610;1.440;2023-05-16T07:33:48;14.60;99.90
35635;DHT22;21757;43.610;1.440;2023-05-16T07:36:14;14.70;99.90
35635;DHT22;21757;43.610;1.440;2023-05-16T07:38:40;14.70;99.90
35635;DHT22;21757;43.610;1.440;2023-05-16T07:41:06;14.90;99.90
35635;DHT22;21757;43.610;1.440;2023-05-16T07:43:34;14.90;99.90
35635;DHT22;21757;43.610;1.440;2023-05-16T07:46:00;15.00;99.90
35635;DHT22;21757;43.610;1.440;2023-05-16T07:48:26;14.70;99.90
35635;DHT22;21757;43.610;1.440;2023-05-16T07:50:52;14.30;99.90
35635;DHT22;21757;43.610;1.440;2023-05-16T07:53:19;14.30;99.90
35635;DHT22;21757;43.610;1.440;2023-05-16T07:55:45;14.10;99.90
35635;DHT22;21757;43.610;1.440;2023-05-16T07:58:10;14.50;99.90
35635;DHT22;21757;43.610;1.440;2023-05-16T08:00:36;14.70;99.90
35635;DHT22;21757;43.610;1.440;2023-05-16T08:03:02;14.70;99.90
35635;DHT22;21757;43.610;1.440;2023-05-16T08:05:28;14.50;99.90
35635;DHT22;21757;43.610;1.440;2023-05-16T08:07:53;14.30;99.90
35635;DHT22;21757;43.610;1.440;2023-05-16T08:10:19;14.60;99.90
35635;DHT22;21757;43.610;1.440;2023-05-16T08:12:45;14.90;99.90
35635;DHT22;21757;43.610;1.440;2023-05-16T08:15:11;15.20;99.90
35635;DHT22;21757;43.610;1.440;2023-05-16T08:17:37;15.60;99.90
35635;DHT22;21757;43.610;1.440;2023-05-16T08:20:03;15.70;99.90
35635;DHT22;21757;43.610;1.440;2023-05-16T08:22:31;15.90;99.90
35635;DHT22;21757;43.610;1.440;2023-05-16T08:24:57;15.80;99.90
35635;DHT22;21757;43.610;1.440;2023-05-16T08:27:25;15.80;99.90
35635;DHT22;21757;43.610;1.440;2023-05-16T08:29:51;15.70;99.90
35635;DHT22;21757;43.610;1.440;2023-05-16T08:32:16;15.50;99.90
35635;DHT22;21757;43.610;1.440;2023-05-16T08:34:45;15.50;99.90
35635;DHT22;21757;43.610;1.440;2023-05-16T08:39:41;15.20;99.90
35635;DHT22;21757;43.610;1.440;2023-05-16T08:44:42;16.00;99.90
35635;DHT22;21757;43.610;1.440;2023-05-16T08:47:17;16.40;99.90
35635;DHT22;21757;43.610;1.440;2023-05-16T08:49:43;15.90;99.90
35635;DHT22;21757;43.610;1.440;2023-05-16T08:52:12;16.10;99.90
35635;DHT22;21757;43.610;1.440;2023-05-16T08:54:38;16.50;99.90
35635;DHT22;21757;43.610;1.440;2023-05-16T08:57:08;16.40;99.90
35635;DHT22;21757;43.610;1.440;2023-05-16T08:59:34;17.00;99.90
35635;DHT22;21757;43.610;1.440;2023-05-16T09:02:01;16.10;99.90
35635;DHT22;21757;43.610;1.440;2023-05-16T09:04:28;15.50;99.90
35635;DHT22;21757;43.610;1.440;2023-05-16T09:06:55;15.80;99.90
35635;DHT22;21757;43.610;1.440;2023-05-16T09:09:20;16.00;99.90
35635;DHT22;21757;43.610;1.440;2023-05-16T09:11:46;15.80;99.90
35635;DHT22;21757;43.610;1.440;2023-05-16T09:14:12;15.80;99.90
35635;DHT22;21757;43.610;1.440;2023-05-16T09:16:38;16.30;99.90
35635;DHT22;21757;43.610;1.440;2023-05-16T09:19:04;16.20;99.90
35635;DHT22;21757;43.610;1.440;2023-05-16T09:21:34;15.50;99.90
35635;DHT22;21757;43.610;1.440;2023-05-16T09:24:04;15.30;99.90
35635;DHT22;21757;43.610;1.440;2023-05-16T09:31:35;15.80;99.90
35635;DHT22;21757;43.610;1.440;2023-05-16T09:34:09;15.20;99.90
35635;DHT22;21757;43.610;1.440;2023-05-16T09:36:38;15.10;99.90
35635;DHT22;21757;43.610;1.440;2023-05-16T09:39:05;15.40;99.90
35635;DHT22;21757;43.610;1.440;2023-05-16T09:44:06;15.90;99.90
35635;DHT22;21757;43.610;1.440;2023-05-16T09:46:36;15.70;99.90
35635;DHT22;21757;43.610;1.440;2023-05-16T09:49:03;16.00;99.90
35635;DHT22;21757;43.610;1.440;2023-05-16T09:51:28;15.80;99.90
35635;DHT22;21757;43.610;1.440;2023-05-16T09:53:54;16.00;99.90
35635;DHT22;21757;43.610;1.440;2023-05-16T09:56:22;16.00;99.90
35635;DHT22;21757;43.610;1.440;2023-05-16T09:58:51;16.20;99.90
35635;DHT22;21757;43.610;1.440;2023-05-16T10:01:18;16.60;99.90
35635;DHT22;21757;43.610;1.440;2023-05-16T10:03:44;17.00;99.90
35635;DHT22;21757;43.610;1.440;2023-05-16T10:06:11;17.30;99.90
35635;DHT22;21757;43.610;1.440;2023-05-16T10:08:41;17.10;99.90
35635;DHT22;21757;43.610;1.440;2023-05-16T10:11:07;16.40;99.90
35635;DHT22;21757;43.610;1.440;2023-05-16T10:16:09;16.80;99.90
35635;DHT22;21757;43.610;1.440;2023-05-16T10:18:37;16.50;99.90
35635;DHT22;21757;43.610;1.440;2023-05-16T10:21:09;16.90;99.90
35635;DHT22;21757;43.610;1.440;2023-05-16T10:23:40;16.20;99.90
35635;DHT22;21757;43.610;1.440;2023-05-16T10:26:07;15.70;99.90
35635;DHT22;21757;43.610;1.440;2023-05-16T10:28:35;15.30;99.90
35635;DHT22;21757;43.610;1.440;2023-05-16T10:31:01;15.30;99.90
35635;DHT22;21757;43.610;1.440;2023-05-16T10:41:13;15.90;99.90
35635;DHT22;21757;43.610;1.440;2023-05-16T10:46:14;16.20;99.90
35635;DHT22;21757;43.610;1.440;2023-05-16T10:48:41;16.40;99.90
35635;DHT22;21757;43.610;1.440;2023-05-16T10:53:54;16.60;99.90
35635;DHT22;21757;43.610;1.440;2023-05-16T10:56:32;16.90;99.90
35635;DHT22;21757;43.610;1.440;2023-05-16T10:59:02;17.80;99.90
35635;DHT22;21757;43.610;1.440;2023-05-16T11:01:34;18.20;99.90
35635;DHT22;21757;43.610;1.440;2023-05-16T11:04:08;17.80;99.90
35635;DHT22;21757;43.610;1.440;2023-05-16T11:09:39;17.30;99.90
35635;DHT22;21757;43.610;1.440;2023-05-16T11:12:47;16.80;99.90
35635;DHT22;21757;43.610;1.440;2023-05-16T11:15:22;16.30;99.90
35635;DHT22;21757;43.610;1.440;2023-05-16T11:17:49;16.40;99.90
35635;DHT22;21757;43.610;1.440;2023-05-16T11:20:31;16.50;99.90
35635;DHT22;21757;43.610;1.440;2023-05-16T11:23:24;16.90;99.90
35635;DHT22;21757;43.610;1.440;2023-05-16T11:25:57;16.70;99.90
35635;DHT22;21757;43.610;1.440;2023-05-16T11:28:26;16.80;99.90
35635;DHT22;21757;43.610;1.440;2023-05-16T11:30:54;17.00;99.90
35635;DHT22;21757;43.610;1.440;2023-05-16T11:33:22;17.80;99.90
35635;DHT22;21757;43.610;1.440;2023-05-16T11:36:05;18.10;99.90
35635;DHT22;21757;43.610;1.440;2023-05-16T11:38:33;18.30;99.90
35635;DHT22;21757;43.610;1.440;2023-05-16T11:41:06;17.60;99.90
35635;DHT22;21757;43.610;1.440;2023-05-16T11:43:41;17.00;99.90
35635;DHT22;21757;43.610;1.440;2023-05-16T11:46:13;16.60;99.90
35635;DHT22;21757;43.610;1.440;2023-05-16T11:48:39;16.70;99.90
35635;DHT22;21757;43.610;1.440;2023-05-16T11:51:05;17.10;99.90
35635;DHT22;21757;43.610;1.440;2023-05-16T12:01:15;17.40;99.90
35635;DHT22;21757;43.610;1.440;2023-05-16T12:03:41;17.00;99.90
35635;DHT22;21757;43.610;1.440;2023-05-16T12:06:07;17.00;99.90
35635;DHT22;21757;43.610;1.440;2023-05-16T12:08:33;17.20;99.90
35635;DHT22;21757;43.610;1.440;2023-05-16T12:10:59;17.60;99.90
35635;DHT22;21757;43.610;1.440;2023-05-16T12:13:25;17.80;99.90
35635;DHT22;21757;43.610;1.440;2023-05-16T12:15:51;18.00;99.90
35635;DHT22;21757;43.610;1.440;2023-05-16T12:18:17;18.50;99.90
35635;DHT22;21757;43.610;1.440;2023-05-16T12:20:44;18.30;99.90
35635;DHT22;21757;43.610;1.440;2023-05-16T12:23:13;18.70;99.90
35635;DHT22;21757;43.610;1.440;2023-05-16T12:25:43;18.90;99.90
35635;DHT22;21757;43.610;1.440;2023-05-16T12:28:12;18.60;99.90
35635;DHT22;21757;43.610;1.440;2023-05-16T12:30:40;18.60;99.90
35635;DHT22;21757;43.610;1.440;2023-05-16T12:33:13;18.20;99.90
35635;DHT22;21757;43.610;1.440;2023-05-16T12:38:14;18.00;99.90
35635;DHT22;21757;43.610;1.440;2023-05-16T12:40:42;18.30;99.90
35635;DHT22;21757;43.610;1.440;2023-05-16T12:48:28;18.20;99.90
35635;DHT22;21757;43.610;1.440;2023-05-16T12:50:56;18.30;99.90
35635;DHT22;21757;43.610;1.440;2023-05-16T12:53:21;18.40;99.90
35635;DHT22;21757;43.610;1.440;2023-05-16T12:55:47;18.60;99.90
35635;DHT22;21757;43.610;1.440;2023-05-16T12:58:13;18.40;99.90
35635;DHT22;21757;43.610;1.440;2023-05-16T13:00:38;17.70;99.90
35635;DHT22;21757;43.610;1.440;2023-05-16T13:03:05;17.50;99.90
35635;DHT22;21757;43.610;1.440;2023-05-16T13:05:33;17.60;99.90
35635;DHT22;21757;43.610;1.440;2023-05-16T13:08:00;18.00;99.90
35635;DHT22;21757;43.610;1.440;2023-05-16T13:12:54;18.30;99.90
35635;DHT22;21757;43.610;1.440;2023-05-16T13:15:23;18.60;99.90
35635;DHT22;21757;43.610;1.440;2023-05-16T13:17:48;18.30;99.90
35635;DHT22;21757;43.610;1.440;2023-05-16T13:20:14;19.20;99.90
35635;DHT22;21757;43.610;1.440;2023-05-16T13:22:42;18.90;99.90
35635;DHT22;21757;43.610;1.440;2023-05-16T13:25:08;19.20;99.90
35635;DHT22;21757;43.610;1.440;2023-05-16T13:27:35;19.00;99.90
35635;DHT22;21757;43.610;1.440;2023-05-16T13:30:01;18.20;99.90
35635;DHT22;21757;43.610;1.440;2023-05-16T13:32:28;17.90;99.90
35635;DHT22;21757;43.610;1.440;2023-05-16T13:34:54;18.10;99.90
35635;DHT22;21757;43.610;1.440;2023-05-16T13:37:20;17.50;99.90
35635;DHT22;21757;43.610;1.440;2023-05-16T13:39:48;17.80;99.90
35635;DHT22;21757;43.610;1.440;2023-05-16T13:42:15;17.80;99.90
35635;DHT22;21757;43.610;1.440;2023-05-16T13:44:41;17.60;99.90
35635;DHT22;21757;43.610;1.440;2023-05-16T13:47:07;17.40;99.90
35635;DHT22;21757;43.610;1.440;2023-05-16T13:49:33;17.40;99.90
35635;DHT22;21757;43.610;1.440;2023-05-16T13:51:59;17.90;99.90
35635;DHT22;21757;43.610;1.440;2023-05-16T13:54:26;18.70;99.90
35635;DHT22;21757;43.610;1.440;2023-05-16T13:56:52;18.50;99.90
35635;DHT22;21757;43.610;1.440;2023-05-16T13:59:17;18.20;99.90
35635;DHT22;21757;43.610;1.440;2023-05-16T14:01:43;17.70;99.90
35635;DHT22;21757;43.610;1.440;2023-05-16T14:04:09;17.30;99.90
35635;DHT22;21757;43.610;1.440;2023-05-16T14:06:34;17.40;99.90
35635;DHT22;21757;43.610;1.440;2023-05-16T14:09:00;17.00;99.90
35635;DHT22;21757;43.610;1.440;2023-05-16T14:11:26;16.70;99.90
35635;DHT22;21757;43.610;1.440;2023-05-16T14:13:55;16.90;99.90
35635;DHT22;21757;43.610;1.440;2023-05-16T14:16:21;17.10;99.90
35635;DHT22;21757;43.610;1.440;2023-05-16T14:18:48;17.00;99.90
35635;DHT22;21757;43.610;1.440;2023-05-16T14:21:14;17.10;99.90
35635;DHT22;21757;43.610;1.440;2023-05-16T14:23:39;17.60;99.90
35635;DHT22;21757;43.610;1.440;2023-05-16T14:26:05;17.90;99.90
35635;DHT22;21757;43.610;1.440;2023-05-16T14:28:31;17.80;99.90
35635;DHT22;21757;43.610;1.440;2023-05-16T14:31:00;17.80;99.90
35635;DHT22;21757;43.610;1.440;2023-05-16T14:33:26;17.70;99.90
35635;DHT22;21757;43.610;1.440;2023-05-16T14:35:52;18.00;99.90
35635;DHT22;21757;43.610;1.440;2023-05-16T14:38:18;17.90;99.90
35635;DHT22;21757;43.610;1.440;2023-05-16T14:40:44;17.80;99.90
35635;DHT22;21757;43.610;1.440;2023-05-16T14:43:10;17.90;99.90
35635;DHT22;21757;43.610;1.440;2023-05-16T14:45:37;18.60;99.90
35635;DHT22;21757;43.610;1.440;2023-05-16T14:48:07;18.80;99.90
35635;DHT22;21757;43.610;1.440;2023-05-16T14:50:33;19.10;99.90
35635;DHT22;21757;43.610;1.440;2023-05-16T14:53:24;18.10;99.90
35635;DHT22;21757;43.610;1.440;2023-05-16T14:55:50;17.80;99.90
35635;DHT22;21757;43.610;1.440;2023-05-16T14:58:16;17.90;99.90
35635;DHT22;21757;43.610;1.440;2023-05-16T15:00:41;17.50;99.90
35635;DHT22;21757;43.610;1.440;2023-05-16T15:03:07;17.40;99.90
35635;DHT22;21757;43.610;1.440;2023-05-16T15:05:33;17.60;99.90
35635;DHT22;21757;43.610;1.440;2023-05-16T15:07:59;18.10;99.90
35635;DHT22;21757;43.610;1.440;2023-05-16T15:10:25;18.50;99.90
35635;DHT22;21757;43.610;1.440;2023-05-16T15:12:51;18.80;99.90
35635;DHT22;21757;43.610;1.440;2023-05-16T15:15:17;19.20;99.90
35635;DHT22;21757;43.610;1.440;2023-05-16T15:17:42;18.90;99.90
35635;DHT22;21757;43.610;1.440;2023-05-16T15:20:10;18.20;99.90
35635;DHT22;21757;43.610;1.440;2023-05-16T15:22:37;18.10;99.90
35635;DHT22;21757;43.610;1.440;2023-05-16T15:25:03;17.90;99.90
35635;DHT22;21757;43.610;1.440;2023-05-16T15:27:30;17.60;99.90
35635;DHT22;21757;43.610;1.440;2023-05-16T15:29:56;17.60;99.90
35635;DHT22;21757;43.610;1.440;2023-05-16T15:32:23;17.50;99.90
35635;DHT22;21757;43.610;1.440;2023-05-16T15:34:49;17.40;99.90
35635;DHT22;21757;43.610;1.440;2023-05-16T15:37:15;17.50;99.90
35635;DHT22;21757;43.610;1.440;2023-05-16T15:39:40;17.40;99.90
35635;DHT22;21757;43.610;1.440;2023-05-16T15:42:07;17.50;99.90
35635;DHT22;21757;43.610;1.440;2023-05-16T15:44:32;17.30;99.90
35635;DHT22;21757;43.610;1.440;2023-05-16T15:46:59;17.90;99.90
35635;DHT22;21757;43.610;1.440;2023-05-16T15:49:25;18.00;99.90
35635;DHT22;21757;43.610;1.440;2023-05-16T15:51:51;17.70;99.90
35635;DHT22;21757;43.610;1.440;2023-05-16T15:54:17;17.70;99.90
35635;DHT22;21757;43.610;1.440;2023-05-16T15:56:43;17.90;99.90
35635;DHT22;21757;43.610;1.440;2023-05-16T15:59:08;18.20;99.90
35635;DHT22;21757;43.610;1.440;2023-05-16T16:01:34;18.20;99.90
35635;DHT22;21757;43.610;1.440;2023-05-16T16:04:00;18.20;99.90
35635;DHT22;21757;43.610;1.440;2023-05-16T16:06:26;18.10;99.90
35635;DHT22;21757;43.610;1.440;2023-05-16T16:08:52;18.00;99.90
35635;DHT22;21757;43.610;1.440;2023-05-16T16:11:20;18.10;99.90
35635;DHT22;21757;43.610;1.440;2023-05-16T16:13:49;18.30;99.90
35635;DHT22;21757;43.610;1.440;2023-05-16T16:16:15;18.40;99.90
35635;DHT22;21757;43.610;1.440;2023-05-16T16:18:41;18.30;99.90
35635;DHT22;21757;43.610;1.440;2023-05-16T16:21:08;18.30;99.90
35635;DHT22;21757;43.610;1.440;2023-05-16T16:23:37;18.40;99.90
35635;DHT22;21757;43.610;1.440;2023-05-16T16:26:05;18.40;99.90
35635;DHT22;21757;43.610;1.440;2023-05-16T16:28:31;18.10;99.90
35635;DHT22;21757;43.610;1.440;2023-05-16T16:30:57;17.50;99.90
35635;DHT22;21757;43.610;1.440;2023-05-16T16:33:23;17.40;99.90